createdAt,value
2022-08-04T06:00:31.741Z,2.00
2022-08-04T06:02:37.490Z,1.90
2022-08-04T06:04:41.273Z,1.80
2022-08-04T06:06:45.528Z,2.10
2022-08-04T06:08:47.680Z,1.93
2022-08-04T06:10:51.438Z,1.90
2022-08-04T06:12:56.948Z,2.03
2022-08-04T06:15:01.199Z,2.10
2022-08-04T06:18:33.398Z,2.23
2022-08-04T06:20:02.378Z,2.17
2022-08-04T06:21:57.941Z,2.30
2022-08-04T06:24:04.467Z,2.20
2022-08-04T06:26:09.393Z,2.07
2022-08-04T06:28:13.798Z,2.73
2022-08-04T06:30:19.170Z,1.97
2022-08-04T06:32:33.682Z,2.00
2022-08-04T06:34:38.809Z,2.10
2022-08-04T06:36:42.741Z,2.00
2022-08-04T06:38:45.180Z,2.00
2022-08-04T06:40:47.455Z,2.20
2022-08-04T06:42:50.377Z,2.30
2022-08-04T06:44:56.607Z,2.30
2022-08-04T06:46:58.872Z,2.07
2022-08-04T06:49:01.488Z,2.13
2022-08-04T06:51:24.862Z,2.07
2022-08-04T06:53:27.055Z,2.00
2022-08-04T06:55:29.352Z,2.00
2022-08-04T06:57:32.693Z,2.23
2022-08-04T06:59:34.975Z,2.53
2022-08-04T07:01:37.668Z,2.40
2022-08-04T07:03:39.532Z,2.40
2022-08-04T07:05:41.630Z,2.30
2022-08-04T07:07:57.457Z,2.42
2022-08-04T07:10:02.155Z,2.25
2022-08-04T07:12:04.832Z,2.60
2022-08-04T07:14:07.273Z,1.95
2022-08-04T07:16:13.195Z,2.17
2022-08-04T07:18:15.002Z,2.50
2022-08-04T07:20:16.789Z,1.80
2022-08-04T07:22:37.464Z,1.70
2022-08-04T07:24:41.066Z,1.90
2022-08-04T07:26:43.886Z,1.88
2022-08-04T07:28:46.396Z,1.80
2022-08-04T07:30:49.866Z,2.20
2022-08-04T07:32:52.564Z,1.90
2022-08-04T07:34:55.071Z,2.08
2022-08-04T07:36:59.758Z,1.80
2022-08-04T07:39:01.829Z,2.10
2022-08-04T07:41:35.352Z,1.42
2022-08-04T07:43:27.611Z,1.98
2022-08-04T07:45:29.387Z,1.80
2022-08-04T07:47:31.179Z,1.90
2022-08-04T07:49:52.150Z,1.80
2022-08-04T07:51:55.347Z,2.00
2022-08-04T07:53:58.646Z,2.35
2022-08-04T07:56:01.692Z,1.90
2022-08-04T07:58:03.532Z,2.15
2022-08-04T08:00:06.834Z,1.98
2022-08-04T08:02:08.797Z,2.10
2022-08-04T08:04:12.692Z,2.10
2022-08-04T08:06:17.467Z,2.25
2022-08-04T08:08:39.353Z,2.05
2022-08-04T08:10:46.708Z,2.15
2022-08-04T08:12:50.811Z,1.98
2022-08-04T08:14:54.303Z,1.95
2022-08-04T08:16:56.272Z,2.10
2022-08-04T08:18:57.945Z,2.00
2022-08-04T08:20:59.884Z,1.80
2022-08-04T08:23:02.882Z,2.20
2022-08-04T08:25:08.726Z,2.05
2022-08-04T08:27:10.429Z,2.25
2022-08-04T08:29:12.701Z,2.15
2022-08-04T08:31:14.415Z,2.47
2022-08-04T08:33:16.841Z,1.90
2022-08-04T08:35:19.233Z,2.40
2022-08-04T08:37:35.346Z,1.77
2022-08-04T08:39:54.333Z,2.20
2022-08-04T08:42:26.798Z,2.40
2022-08-04T08:44:54.824Z,2.20
2022-08-04T08:47:11.778Z,2.38
2022-08-04T08:50:01.611Z,2.10
2022-08-04T08:52:56.387Z,2.13
2022-08-04T08:55:12.680Z,2.10
2022-08-04T08:57:32.914Z,2.30
2022-08-04T09:00:19.604Z,1.90
2022-08-04T09:02:33.744Z,2.03
2022-08-04T09:04:43.285Z,2.03
2022-08-04T09:06:47.804Z,2.38
2022-08-04T09:09:09.787Z,2.22
2022-08-04T09:11:26.050Z,2.20
2022-08-04T09:13:36.849Z,2.05
2022-08-04T09:15:57.396Z,2.25
2022-08-04T09:18:04.919Z,2.20
2022-08-04T09:20:27.438Z,2.00
2022-08-04T09:22:33.665Z,2.05
2022-08-04T09:24:38.157Z,2.00
2022-08-04T09:26:59.744Z,2.28
2022-08-04T09:29:19.686Z,2.10
2022-08-04T09:31:52.959Z,2.00
2022-08-04T09:34:12.714Z,2.38
2022-08-04T09:36:26.671Z,2.10
2022-08-04T09:38:37.385Z,2.28
2022-08-04T09:41:49.268Z,2.17
2022-08-04T09:44:52.373Z,2.05
2022-08-04T09:47:25.540Z,3.00
2022-08-04T09:49:56.024Z,2.22
2022-08-04T09:51:59.637Z,2.30
2022-08-04T09:54:31.036Z,2.03
2022-08-04T09:56:42.917Z,1.80
2022-08-04T09:59:03.448Z,2.08
2022-08-04T10:01:11.568Z,2.00
2022-08-04T10:03:19.709Z,2.13
2022-08-04T10:05:26.533Z,2.28
2022-08-04T10:08:15.066Z,2.35
2022-08-04T10:10:42.886Z,2.05
2022-08-04T10:13:09.647Z,2.45
2022-08-04T10:15:19.424Z,2.10
2022-08-04T10:17:34.133Z,2.60
2022-08-04T10:19:40.359Z,2.30
2022-08-04T10:22:28.377Z,2.30
2022-08-04T10:24:53.102Z,2.50
2022-08-04T10:27:09.658Z,2.42
2022-08-04T10:29:38.432Z,2.28
2022-08-04T10:31:46.399Z,2.38
2022-08-04T10:34:12.402Z,2.28
2022-08-04T10:36:21.153Z,2.35
2022-08-04T10:38:27.149Z,2.05
2022-08-04T10:40:45.506Z,2.15
2022-08-04T10:43:00.409Z,1.83
2022-08-04T10:45:19.446Z,2.45
2022-08-04T10:47:26.747Z,2.53
2022-08-04T10:49:40.579Z,1.83
2022-08-04T10:52:03.619Z,2.42
2022-08-04T10:54:17.224Z,1.95
2022-08-04T10:56:41.775Z,2.20
2022-08-04T10:58:49.580Z,2.03
2022-08-04T11:00:57.390Z,1.85
2022-08-04T11:03:22.068Z,2.10
2022-08-04T11:05:32.519Z,1.85
2022-08-04T11:07:37.699Z,2.03
2022-08-04T11:09:42.724Z,2.10
2022-08-04T11:12:01.622Z,1.90
2022-08-04T11:14:09.054Z,2.00
2022-08-04T11:16:26.963Z,2.20
2022-08-04T11:18:47.809Z,2.65
2022-08-04T11:20:57.458Z,1.80
2022-08-04T11:23:15.271Z,2.17
2022-08-04T11:25:25.139Z,2.45
2022-08-04T11:27:48.838Z,2.20
2022-08-04T11:30:06.102Z,1.80
2022-08-04T11:32:17.205Z,2.20
2022-08-04T11:34:24.103Z,2.13
2022-08-04T11:36:46.549Z,2.65
2022-08-04T11:38:59.434Z,2.13
2022-08-04T11:41:10.820Z,1.92
2022-08-04T11:44:02.701Z,1.70
2022-08-04T11:46:03.455Z,2.15
2022-08-04T11:48:10.644Z,2.00
2022-08-04T11:50:20.294Z,2.03
2022-08-04T11:52:23.540Z,1.90
2022-08-04T11:54:25.265Z,2.10
2022-08-04T11:56:36.593Z,2.00
2022-08-04T11:58:39.593Z,1.95
2022-08-04T12:00:52.828Z,1.73
2022-08-04T12:03:03.077Z,2.10
2022-08-04T12:05:09.516Z,2.00
2022-08-04T12:07:41.635Z,1.92
2022-08-04T12:09:58.719Z,1.70
2022-08-04T12:12:05.918Z,1.67
2022-08-04T12:14:21.212Z,1.92
2022-08-04T12:16:30.454Z,2.00
2022-08-04T12:18:54.942Z,1.75
2022-08-04T12:21:09.833Z,1.65
2022-08-04T12:23:25.030Z,1.90
2022-08-04T12:25:32.969Z,2.13
2022-08-04T12:27:45.770Z,2.00
2022-08-04T12:30:54.167Z,2.00
2022-08-04T12:32:35.911Z,1.75
2022-08-04T12:35:08.535Z,2.17
2022-08-04T12:37:42.334Z,1.73
2022-08-04T12:40:27.394Z,1.98
2022-08-04T12:42:23.910Z,2.05
2022-08-04T12:44:38.024Z,2.00
2022-08-04T12:46:45.539Z,1.95
2022-08-04T12:48:49.343Z,2.05
2022-08-04T12:50:53.964Z,1.88
2022-08-04T12:53:04.522Z,2.10
2022-08-04T12:55:06.764Z,2.03
2022-08-04T12:57:10.293Z,2.03
2022-08-04T12:59:13.430Z,2.03
2022-08-04T13:02:08.319Z,1.98
2022-08-04T13:04:12.268Z,1.77
2022-08-04T13:06:21.069Z,1.90
2022-08-04T13:08:25.446Z,1.70
2022-08-04T13:10:29.983Z,2.00
2022-08-04T13:12:33.954Z,3.00
2022-08-04T13:14:37.742Z,2.05
2022-08-04T13:16:39.658Z,1.95
2022-08-04T13:18:49.550Z,1.83
2022-08-04T13:20:51.684Z,2.10
2022-08-04T13:22:59.829Z,2.20
2022-08-04T13:26:40.700Z,2.00
2022-08-04T13:27:24.834Z,2.03
2022-08-04T13:29:59.660Z,2.00
2022-08-04T13:32:05.295Z,1.70
2022-08-04T13:34:18.760Z,1.60
2022-08-04T13:36:26.026Z,1.75
2022-08-04T13:38:29.399Z,1.90
2022-08-04T13:40:31.893Z,2.15
2022-08-04T13:42:38.702Z,1.60
2022-08-04T13:44:45.596Z,2.15
2022-08-04T13:46:57.616Z,2.10
2022-08-04T13:51:57.599Z,1.98
2022-08-04T13:53:57.093Z,1.90
2022-08-04T13:56:01.300Z,2.50
2022-08-04T13:58:10.866Z,2.60
2022-08-04T14:00:13.673Z,2.13
2022-08-04T14:02:25.992Z,2.60
2022-08-04T14:04:29.062Z,2.40
2022-08-04T14:06:35.600Z,2.45
2022-08-04T14:08:47.903Z,2.42
2022-08-04T14:10:57.917Z,2.47
2022-08-04T14:13:00.255Z,2.13
2022-08-04T14:15:02.126Z,2.58
2022-08-04T14:17:19.738Z,2.20
2022-08-04T14:19:24.256Z,2.30
2022-08-04T14:21:28.968Z,1.92
2022-08-04T14:23:47.495Z,2.10
2022-08-04T14:25:49.976Z,2.40
2022-08-04T14:27:54.695Z,2.72
2022-08-04T14:29:56.694Z,2.58
2022-08-04T14:32:06.146Z,2.00
2022-08-04T14:34:29.942Z,2.55
2022-08-04T14:37:13.115Z,2.40
2022-08-04T14:39:07.219Z,2.38
2022-08-04T14:41:09.273Z,2.30
2022-08-04T14:43:11.016Z,2.30
2022-08-04T14:45:12.816Z,2.20
2022-08-04T14:47:14.763Z,2.22
2022-08-04T14:49:16.561Z,2.40
2022-08-04T14:51:18.506Z,2.10
2022-08-04T14:53:38.590Z,2.30
2022-08-04T14:55:44.623Z,2.10
2022-08-04T14:58:35.157Z,2.10
2022-08-04T15:00:11.911Z,2.33
2022-08-04T15:02:16.586Z,2.30
2022-08-04T15:04:19.581Z,2.10
2022-08-04T15:06:23.693Z,2.20
2022-08-04T15:08:30.871Z,2.38
2022-08-04T15:10:34.821Z,3.75
2022-08-04T15:12:36.843Z,2.50
2022-08-04T15:14:38.855Z,2.15
2022-08-04T15:16:54.438Z,2.70
2022-08-04T15:18:57.740Z,2.08
2022-08-04T15:21:03.624Z,1.92
2022-08-04T15:23:10.670Z,1.98
2022-08-04T15:25:15.521Z,2.85
2022-08-04T15:27:19.643Z,3.70
2022-08-04T15:30:00.605Z,3.20
2022-08-04T15:32:09.037Z,2.60
2022-08-04T15:34:12.134Z,3.58
2022-08-04T15:36:21.972Z,3.17
2022-08-04T15:38:35.570Z,4.78
2022-08-04T15:40:55.724Z,2.67
2022-08-04T15:43:12.646Z,2.60
2022-08-04T15:46:02.514Z,2.60
2022-08-04T15:48:05.797Z,2.38
2022-08-04T15:50:10.657Z,2.50
2022-08-04T15:52:18.260Z,2.70
2022-08-04T15:54:27.861Z,2.00
2022-08-04T15:56:36.984Z,2.65
2022-08-04T15:58:50.262Z,2.63
2022-08-04T16:00:54.048Z,2.70
2022-08-04T16:02:55.907Z,2.45
2022-08-04T16:05:18.164Z,4.47
2022-08-04T16:07:21.574Z,4.00
2022-08-04T16:09:46.387Z,2.50
2022-08-04T16:11:47.533Z,2.13
2022-08-04T16:14:04.227Z,2.50
2022-08-04T16:16:06.490Z,2.63
2022-08-04T16:18:14.537Z,2.25
2022-08-04T16:20:28.961Z,2.17
2022-08-04T16:22:39.709Z,2.38
2022-08-04T16:24:42.578Z,2.53
2022-08-04T16:26:46.150Z,3.08
2022-08-04T16:28:56.186Z,2.33
2022-08-04T16:31:07.497Z,2.92
2022-08-04T16:33:09.639Z,2.05
2022-08-04T16:35:28.571Z,2.10
2022-08-04T16:37:38.815Z,2.22
2022-08-04T16:39:49.546Z,2.30
2022-08-04T16:41:53.659Z,2.22
2022-08-04T16:44:52.580Z,2.63
2022-08-04T16:47:21.480Z,2.58
2022-08-04T16:49:16.731Z,2.60
2022-08-04T16:51:18.478Z,2.40
2022-08-04T16:53:53.391Z,2.60
2022-08-04T16:55:47.601Z,2.08
2022-08-04T16:57:50.593Z,2.15
2022-08-04T16:59:52.494Z,2.50
2022-08-04T17:01:55.201Z,2.08
2022-08-04T17:03:58.591Z,2.42
2022-08-04T17:06:07.626Z,2.22
2022-08-04T17:10:45.726Z,2.40
2022-08-04T17:12:47.716Z,2.53
2022-08-04T17:14:49.478Z,2.22
2022-08-04T17:16:53.525Z,2.40
2022-08-04T17:18:55.641Z,2.35
2022-08-04T17:21:02.117Z,2.85
2022-08-04T17:24:16.401Z,2.78
2022-08-04T17:26:01.894Z,2.75
2022-08-04T17:28:19.241Z,2.50
2022-08-04T17:30:27.277Z,2.17
2022-08-04T17:32:29.128Z,2.63
2022-08-04T17:34:30.945Z,2.78
2022-08-04T17:36:34.191Z,2.38
2022-08-04T17:38:43.682Z,2.60
2022-08-04T17:41:30.346Z,2.70
2022-08-04T17:44:04.589Z,2.67
2022-08-04T17:46:28.607Z,3.17
2022-08-04T17:49:21.052Z,3.33
2022-08-04T17:52:06.614Z,2.58
2022-08-04T17:54:02.748Z,3.15
2022-08-04T17:56:06.550Z,2.67
2022-08-04T17:58:20.913Z,2.70
2022-08-04T18:00:23.594Z,2.63
2022-08-04T18:02:35.317Z,2.60
2022-08-04T18:04:57.464Z,3.00
2022-08-04T18:08:35.335Z,2.75
2022-08-04T18:10:01.744Z,2.95
2022-08-04T18:11:59.242Z,3.85
2022-08-04T18:14:01.717Z,3.17
2022-08-04T18:16:05.485Z,3.22
2022-08-04T18:18:23.573Z,3.20
2022-08-04T18:20:27.821Z,2.92
2022-08-04T18:22:29.940Z,3.65
2022-08-04T18:24:56.489Z,3.28
2022-08-04T18:26:57.406Z,3.30
2022-08-04T18:28:59.316Z,2.97
2022-08-04T18:31:01.937Z,2.83
2022-08-04T18:33:37.691Z,3.13
2022-08-04T18:36:31.621Z,3.13
2022-08-04T18:38:06.353Z,2.45
2022-08-04T18:40:26.667Z,2.90
2022-08-04T18:42:37.544Z,3.00
2022-08-04T18:47:22.296Z,2.90
2022-08-04T18:50:32.705Z,3.20
2022-08-04T18:51:48.926Z,2.80
2022-08-04T18:53:55.342Z,2.72
2022-08-04T18:56:00.570Z,3.00
2022-08-04T18:58:07.216Z,3.00
2022-08-04T19:00:13.836Z,2.90
2022-08-04T19:02:17.460Z,2.95
2022-08-04T19:04:32.875Z,3.35
2022-08-04T19:06:39.218Z,3.20
2022-08-04T19:08:42.756Z,3.10
2022-08-04T19:10:47.122Z,3.03
2022-08-04T19:12:56.238Z,3.38
2022-08-04T19:15:07.905Z,3.20
2022-08-04T19:17:12.523Z,3.10
2022-08-04T19:19:15.570Z,4.97
2022-08-04T19:21:18.710Z,3.67
2022-08-04T19:24:30.337Z,3.78
2022-08-04T19:26:02.648Z,4.28
2022-08-04T19:28:05.103Z,3.17
2022-08-04T19:30:07.982Z,2.88
2022-08-04T19:32:16.339Z,3.50
2022-08-04T19:34:34.758Z,3.25
2022-08-04T19:36:36.938Z,3.28
2022-08-04T19:38:40.437Z,3.83
2022-08-04T19:40:43.782Z,3.28
2022-08-04T19:43:01.702Z,3.40
2022-08-04T19:45:15.517Z,3.20
2022-08-04T19:47:59.347Z,3.72
2022-08-04T19:50:02.780Z,30.70
2022-08-04T19:52:01.293Z,327.58
2022-08-04T19:54:16.640Z,318.25
2022-08-04T19:56:25.791Z,48.15
2022-08-04T19:58:27.653Z,41.00
2022-08-04T20:00:33.786Z,18.77
2022-08-04T20:02:36.258Z,41.00
2022-08-04T20:04:37.939Z,25.20
2022-08-04T20:06:39.816Z,7.05
2022-08-04T20:08:48.320Z,9.63
2022-08-04T20:10:51.384Z,5.70
2022-08-04T20:12:55.915Z,3.30
2022-08-04T20:14:57.730Z,4.15
2022-08-04T20:17:09.922Z,3.50
2022-08-04T20:19:14.224Z,3.03
2022-08-04T20:21:19.793Z,3.03
2022-08-04T20:23:47.718Z,3.30
2022-08-04T20:25:48.164Z,3.10
2022-08-04T20:27:59.475Z,3.38
2022-08-04T20:30:06.309Z,2.92
2022-08-04T20:32:22.815Z,3.33
2022-08-04T20:34:24.520Z,3.20
2022-08-04T20:36:26.707Z,3.45
2022-08-04T20:40:50.278Z,3.05
2022-08-04T20:42:52.037Z,3.05
2022-08-04T20:44:54.481Z,3.10
2022-08-04T20:46:56.217Z,3.38
2022-08-04T20:48:58.131Z,3.35
2022-08-04T20:51:00.547Z,3.42
2022-08-04T20:53:02.318Z,3.92
2022-08-04T20:55:05.838Z,3.75
2022-08-04T20:57:08.427Z,3.00
2022-08-04T20:59:10.967Z,3.40
2022-08-04T21:01:18.802Z,4.05
2022-08-04T21:03:20.722Z,3.67
2022-08-04T21:05:40.530Z,3.15
2022-08-04T21:07:43.856Z,3.50
2022-08-04T21:12:26.673Z,4.15
2022-08-04T21:14:30.557Z,3.40
2022-08-04T21:16:54.904Z,3.60
2022-08-04T21:18:54.091Z,3.08
2022-08-04T21:20:59.198Z,3.85
2022-08-04T21:23:04.957Z,3.70
2022-08-04T21:25:15.871Z,3.95
2022-08-04T21:27:18.333Z,3.83
2022-08-04T21:29:21.825Z,3.58
2022-08-04T21:31:24.559Z,3.40
2022-08-04T21:33:51.100Z,3.60
2022-08-04T21:35:54.121Z,3.00
2022-08-04T21:38:00.859Z,3.90
2022-08-04T21:40:14.471Z,3.60
2022-08-04T21:42:28.232Z,3.88
2022-08-04T21:44:32.103Z,3.70
2022-08-04T21:46:34.298Z,3.58
2022-08-04T21:48:44.225Z,3.30
2022-08-04T21:50:50.777Z,3.72
2022-08-04T21:52:52.513Z,4.43
2022-08-04T21:54:55.002Z,3.60
2022-08-04T21:56:56.790Z,3.63
2022-08-04T21:58:58.933Z,3.22
